Aérodrome :
LOGIN :

S'inscrire | Disclaimer

   EN    FR    IT 

 










Légende :    VFR   VFR Marginal   IFR   IFR Intensif   IFR Très Intensif
Visi : 
Plafond : 
>= 8 km
>= 3000ft
5 à 8 km
1000 à 3000 ft
1500m à 5 km
500 à 1000 ft
800 à 1500m
200 à 500 ft
< 800m
< 200 ft
Symboles :   Orages  Brouillard  Fortes neiges  Fortes précipitations  Vent > 20 kt
SIGMETs :   Divers  Orages  Givrage  Turbulence  Onde Orograph.  Cendres Volcan.







- Altitude de l'aérodrome : 1325 ft
- Code IATA : EBU
- Voir les cartes d'approche


LFMH - St-Etienne Boutheon

DERNIER METAR :
  • 131630Z AUTO 20010KT 170V240 9999 BKN038 BKN058 BKN074 09/02 Q1012 TEMPO 18015G25KT

METARs EXPIRÉS :
  • 131600Z AUTO 20006KT 170V240 9999 FEW056 BKN072 OVC094 08/02 Q1012 TEMPO 18015G25KT
  • 131530Z AUTO 22007KT 190V250 CAVOK 08/02 Q1013 TEMPO 18015G25KT
  • 131500Z AUTO 23006KT 190V280 CAVOK 08/01 Q1013 TEMPO 18015G25KT
  • 131430Z AUTO 22010KT 180V260 CAVOK 08/01 Q1013 TEMPO 18015G25KT
  • 131400Z AUTO 21011KT 180V240 CAVOK 08/01 Q1013 TEMPO 18015G25KT

TAF TAF LFMH
Valide du 13 à 15h jusqu'au 14 à 15h UTC


131400Z 1315/1415 21012KT 9999 FEW035 BKN070
TEMPO 1315/1324 18015G25KT -RA
PROB40
TEMPO 1315/1415 NSC
ATIS : +33 4 77 36 17 51
Pas de NOTAMs connus pour ce terrain.
2 SIGMETs publiés pour la FIR Marseille (LFMM) :
 
Onde orographique forte
LFMM SIGMET 4 VALID 131700/132000 LFPW
LFMM MARSEILLE FIR/UIR SEV MTW FCST E OF E00900 SFC/FL320 STNR NC=
Onde orographique forte
LFMM SIGMET 3 VALID 131300/131700 LFPW
LFMM MARSEILLE FIR/UIR SEV MTW FCST E OF E00900 SFC/FL320 STNR NC=



MET'MAP, la Météo Aéronautique d'un coup d'oeil ! - Copyright ORBIFLY Décembre 2007 - Disclaimer

ORBIFLY MET'MAP TEAM :

Programmation & Développement : Alexandra Zaïnal
Conception & Développement : Baudouin d'Aumeries
Co-Programmation & Développement : Marc-Olivier Méhu
Soutien technique & logistique : Manuel Goepfert

Contact : metmap@orbifly.com




SOURCES & CREDITS :

   NOAA